Opal Express — V7KB8 — position and weather

sailwx.info

Track history (hours):
 
Tides and Currents Weather Stations Pressure Air Temp Water Temp Dewpoint Dewpoint Depression Visibility Wind Speed Wind Dir Waves Ship Positions

Opal Express

Last reported at 2016-Sep-08 09:04 UTC. Time now 2016-Oct-01 13:54 UTC.
Position N 33°53' E 134°58'.
Warning: this ship's position is 23 days out of date.

Length 179 m; draft 7.8 m.

Type: Tanker. MMSI: 538002500.

Date/timePositionNaut miles runAvg speedWind from/ knotsBaromVisibWave heightAir tempDewpointWater temp
2016-Sep-08 09:04N 33°53' E 134°58'816.0
2016-Sep-08 08:33N 34°01' E 134°58'1010.2
2016-Sep-08 07:33N 34°11' E 134°58'1010.2
2016-Sep-08 06:33N 34°22' E 134°60'1313.1
2016-Sep-08 05:33N 34°34' E 135°05'10 9.6
2016-Sep-08 04:33N 34°35' E 134°53'6 0.2
2016-Sep-06 22:33N 34°33' E 134°46'1312.5
2016-Sep-06 21:30N 34°37' E 135°01'7 7.3
2016-Sep-06 20:33N 34°32' E 135°07'1211.6
2016-Sep-06 19:33N 34°21' E 135°02'1110.6
2016-Sep-06 18:32N 34°10' E 134°60'1110.2
2016-Sep-06 17:30N 33°60' E 134°60'  
2016-Sep-04 10:21N 34°60' E 139°37'911.5
2016-Sep-04 09:33N 35°07' E 139°44'8 7.6
2016-Sep-04 08:33N 35°14' E 139°46'1111.4
2016-Sep-04 07:33N 35°25' E 139°44'1212.2
2016-Sep-04 06:33N 35°33' E 139°55'0 0.2
2016-Sep-04 04:32N 35°34' E 139°56'0 0.0
2016-Sep-04 03:32N 35°34' E 139°56'0 0.1
2016-Sep-04 02:32N 35°34' E 139°56'0 0.0
2016-Sep-04 01:32N 35°34' E 139°56'0 0.1
2016-Sep-04 00:33N 35°34' E 139°56'8 6.0
2016-Sep-03 23:18N 35°36' E 140°05'0 0.0
2016-Sep-03 22:18N 35°36' E 140°05'0 0.0
2016-Sep-03 21:30N 35°36' E 140°05'0 0.0
2016-Sep-03 20:30N 35°36' E 140°05'0 0.0
2016-Sep-03 19:30N 35°36' E 140°05'0 0.0
2016-Sep-03 17:24N 35°36' E 140°05'0 0.0
2016-Sep-03 16:24N 35°36' E 140°05'0 0.0
2016-Sep-03 15:24N 35°36' E 140°05'0 0.0
2016-Sep-03 14:24N 35°36' E 140°05'0 0.0
2016-Sep-03 13:30N 35°36' E 140°05'0 0.0
2016-Sep-03 12:18N 35°36' E 140°05'0 0.0
2016-Sep-03 11:24N 35°36' E 140°05'0 0.0
2016-Sep-03 10:30N 35°36' E 140°05'0 0.0
2016-Sep-03 09:30N 35°36' E 140°05'0 0.0
2016-Sep-03 08:30N 35°36' E 140°05'0 0.0
2016-Sep-03 07:30N 35°36' E 140°05'0 0.0
2016-Sep-03 06:30N 35°36' E 140°05'0 0.0
2016-Sep-03 05:24N 35°36' E 140°05'0 0.0
2016-Sep-03 04:24N 35°36' E 140°05'0 0.0
2016-Sep-03 03:30N 35°36' E 140°05'0 0.0
2016-Sep-03 01:33N 35°36' E 140°05'6 5.9
2016-Sep-03 00:33N 35°32' E 139°60'2 1.8
2016-Sep-02 23:21N 35°30' E 140°01'0 0.0
2016-Sep-02 22:33N 35°30' E 140°01'0 0.0
2016-Sep-02 21:33N 35°30' E 140°01'0 0.0
2016-Sep-02 19:33N 35°30' E 140°01'0 0.0
2016-Sep-02 18:33N 35°30' E 140°01'0 0.0
2016-Sep-02 16:27N 35°30' E 140°01'0 0.0
2016-Sep-02 15:33N 35°30' E 140°01'0 0.0
2016-Sep-02 13:27N 35°30' E 140°01'0 0.0
2016-Sep-02 12:33N 35°30' E 140°01'0 0.0
2016-Sep-02 11:33N 35°30' E 140°01'0 0.0
2016-Sep-02 10:33N 35°30' E 140°01'0 0.0
2016-Sep-02 08:33N 35°30' E 140°01'0 0.0
2016-Sep-02 07:33N 35°30' E 140°01'0 0.0
2016-Sep-02 06:33N 35°30' E 140°01'0 0.0
2016-Sep-02 05:33N 35°30' E 140°01'0 0.0
2016-Sep-02 04:33N 35°30' E 140°01'0 0.0
2016-Sep-02 03:34N 35°30' E 140°01'4 3.9
2016-Sep-02 02:34N 35°31' E 139°57'1110.8
2016-Sep-02 01:33N 35°24' E 139°46'1110.8
2016-Sep-02 00:33N 35°14' E 139°47'8 8.3
2016-Sep-01 23:33N 35°05' E 139°45'1211.7
2016-Sep-01 22:31N 34°54' E 139°41'1111.0
2016-Sep-01 21:28N 34°49' E 139°54'1212.6
2016-Sep-01 20:33N 34°49' E 140°08'1211.6
2016-Sep-01 19:33N 34°50' E 140°22'  
Track history (hours):
 
Tides and Currents Weather Stations Pressure Air Temp Water Temp Dewpoint Dewpoint Depression Visibility Wind Speed Wind Dir Waves Ship Positions

Opal Express

Last reported at 2016-Sep-08 09:04 UTC. Time now 2016-Oct-01 13:54 UTC.
Position N 33°53' E 134°58'.
Warning: this ship's position is 23 days out of date.

Length 179 m; draft 7.8 m.

Type: Tanker. MMSI: 538002500.

Date/timePositionNaut miles runAvg speedWind from/ knotsBaromVisibWave heightAir tempDewpointWater temp
2016-Sep-08 09:04N 33°53' E 134°58'816.0
2016-Sep-08 08:33N 34°01' E 134°58'1010.2
2016-Sep-08 07:33N 34°11' E 134°58'1010.2
2016-Sep-08 06:33N 34°22' E 134°60'1313.1
2016-Sep-08 05:33N 34°34' E 135°05'10 9.6
2016-Sep-08 04:33N 34°35' E 134°53'6 0.2
2016-Sep-06 22:33N 34°33' E 134°46'1312.5
2016-Sep-06 21:30N 34°37' E 135°01'7 7.3
2016-Sep-06 20:33N 34°32' E 135°07'1211.6
2016-Sep-06 19:33N 34°21' E 135°02'1110.6
2016-Sep-06 18:32N 34°10' E 134°60'1110.2
2016-Sep-06 17:30N 33°60' E 134°60'  
2016-Sep-04 10:21N 34°60' E 139°37'911.5
2016-Sep-04 09:33N 35°07' E 139°44'8 7.6
2016-Sep-04 08:33N 35°14' E 139°46'1111.4
2016-Sep-04 07:33N 35°25' E 139°44'1212.2
2016-Sep-04 06:33N 35°33' E 139°55'0 0.2
2016-Sep-04 04:32N 35°34' E 139°56'0 0.0
2016-Sep-04 03:32N 35°34' E 139°56'0 0.1
2016-Sep-04 02:32N 35°34' E 139°56'0 0.0
2016-Sep-04 01:32N 35°34' E 139°56'0 0.1
2016-Sep-04 00:33N 35°34' E 139°56'8 6.0
2016-Sep-03 23:18N 35°36' E 140°05'0 0.0
2016-Sep-03 22:18N 35°36' E 140°05'0 0.0
2016-Sep-03 21:30N 35°36' E 140°05'0 0.0
2016-Sep-03 20:30N 35°36' E 140°05'0 0.0
2016-Sep-03 19:30N 35°36' E 140°05'0 0.0
2016-Sep-03 17:24N 35°36' E 140°05'0 0.0
2016-Sep-03 16:24N 35°36' E 140°05'0 0.0
2016-Sep-03 15:24N 35°36' E 140°05'0 0.0
2016-Sep-03 14:24N 35°36' E 140°05'0 0.0
2016-Sep-03 13:30N 35°36' E 140°05'0 0.0
2016-Sep-03 12:18N 35°36' E 140°05'0 0.0
2016-Sep-03 11:24N 35°36' E 140°05'0 0.0
2016-Sep-03 10:30N 35°36' E 140°05'0 0.0
2016-Sep-03 09:30N 35°36' E 140°05'0 0.0
2016-Sep-03 08:30N 35°36' E 140°05'0 0.0
2016-Sep-03 07:30N 35°36' E 140°05'0 0.0
2016-Sep-03 06:30N 35°36' E 140°05'0 0.0
2016-Sep-03 05:24N 35°36' E 140°05'0 0.0
2016-Sep-03 04:24N 35°36' E 140°05'0 0.0
2016-Sep-03 03:30N 35°36' E 140°05'0 0.0
2016-Sep-03 01:33N 35°36' E 140°05'6 5.9
2016-Sep-03 00:33N 35°32' E 139°60'2 1.8
2016-Sep-02 23:21N 35°30' E 140°01'0 0.0
2016-Sep-02 22:33N 35°30' E 140°01'0 0.0
2016-Sep-02 21:33N 35°30' E 140°01'0 0.0
2016-Sep-02 19:33N 35°30' E 140°01'0 0.0
2016-Sep-02 18:33N 35°30' E 140°01'0 0.0
2016-Sep-02 16:27N 35°30' E 140°01'0 0.0
2016-Sep-02 15:33N 35°30' E 140°01'0 0.0
2016-Sep-02 13:27N 35°30' E 140°01'0 0.0
2016-Sep-02 12:33N 35°30' E 140°01'0 0.0
2016-Sep-02 11:33N 35°30' E 140°01'0 0.0
2016-Sep-02 10:33N 35°30' E 140°01'0 0.0
2016-Sep-02 08:33N 35°30' E 140°01'0 0.0
2016-Sep-02 07:33N 35°30' E 140°01'0 0.0
2016-Sep-02 06:33N 35°30' E 140°01'0 0.0
2016-Sep-02 05:33N 35°30' E 140°01'0 0.0
2016-Sep-02 04:33N 35°30' E 140°01'0 0.0
2016-Sep-02 03:34N 35°30' E 140°01'4 3.9
2016-Sep-02 02:34N 35°31' E 139°57'1110.8
2016-Sep-02 01:33N 35°24' E 139°46'1110.8
2016-Sep-02 00:33N 35°14' E 139°47'8 8.3
2016-Sep-01 23:33N 35°05' E 139°45'1211.7
2016-Sep-01 22:31N 34°54' E 139°41'1111.0
2016-Sep-01 21:28N 34°49' E 139°54'1212.6
2016-Sep-01 20:33N 34°49' E 140°08'1211.6
2016-Sep-01 19:33N 34°50' E 140°22'  

Dump ship's entire track history